sensor_id;sensor_type;location;lat;lon;timestamp;temperature;humidity
5280;DHT22;2663;53.588;10.010;2024-03-25T00:00:59;7.50;99.90
5280;DHT22;2663;53.588;10.010;2024-03-25T00:03:25;7.50;99.90
5280;DHT22;2663;53.588;10.010;2024-03-25T00:05:51;9.30;99.90
5280;DHT22;2663;53.588;10.010;2024-03-25T00:08:16;7.50;99.90
5280;DHT22;2663;53.588;10.010;2024-03-25T00:10:42;7.50;99.90
5280;DHT22;2663;53.588;10.010;2024-03-25T00:13:08;7.50;99.90
5280;DHT22;2663;53.588;10.010;2024-03-25T00:15:36;7.50;99.90
5280;DHT22;2663;53.588;10.010;2024-03-25T00:18:04;7.60;99.90
5280;DHT22;2663;53.588;10.010;2024-03-25T00:20:29;7.60;99.90
5280;DHT22;2663;53.588;10.010;2024-03-25T00:22:56;5.70;99.90
5280;DHT22;2663;53.588;10.010;2024-03-25T00:25:21;7.50;99.90
5280;DHT22;2663;53.588;10.010;2024-03-25T00:27:47;7.50;99.90
5280;DHT22;2663;53.588;10.010;2024-03-25T00:30:13;7.50;99.90
5280;DHT22;2663;53.588;10.010;2024-03-25T00:32:39;7.60;99.90
5280;DHT22;2663;53.588;10.010;2024-03-25T00:35:06;7.60;99.90
5280;DHT22;2663;53.588;10.010;2024-03-25T00:37:32;7.60;99.90
5280;DHT22;2663;53.588;10.010;2024-03-25T00:39:58;7.40;99.90
5280;DHT22;2663;53.588;10.010;2024-03-25T00:42:24;7.40;99.90
5280;DHT22;2663;53.588;10.010;2024-03-25T00:44:49;7.40;99.90
5280;DHT22;2663;53.588;10.010;2024-03-25T00:47:15;7.40;99.90
5280;DHT22;2663;53.588;10.010;2024-03-25T00:49:41;7.40;99.90
5280;DHT22;2663;53.588;10.010;2024-03-25T00:52:06;7.40;99.90
5280;DHT22;2663;53.588;10.010;2024-03-25T00:54:32;7.40;99.90
5280;DHT22;2663;53.588;10.010;2024-03-25T00:56:58;7.40;99.90
5280;DHT22;2663;53.588;10.010;2024-03-25T00:59:24;7.30;99.90
5280;DHT22;2663;53.588;10.010;2024-03-25T01:01:50;7.30;99.90
5280;DHT22;2663;53.588;10.010;2024-03-25T01:04:16;7.30;99.90
5280;DHT22;2663;53.588;10.010;2024-03-25T01:06:42;7.30;99.90
5280;DHT22;2663;53.588;10.010;2024-03-25T01:09:08;7.40;99.90
5280;DHT22;2663;53.588;10.010;2024-03-25T01:11:35;7.40;99.90
5280;DHT22;2663;53.588;10.010;2024-03-25T01:14:01;7.30;99.90
5280;DHT22;2663;53.588;10.010;2024-03-25T01:16:27;7.30;99.90
5280;DHT22;2663;53.588;10.010;2024-03-25T01:18:53;7.30;99.90
5280;DHT22;2663;53.588;10.010;2024-03-25T01:21:18;7.30;99.90
5280;DHT22;2663;53.588;10.010;2024-03-25T01:23:45;7.30;99.90
5280;DHT22;2663;53.588;10.010;2024-03-25T01:26:11;8.60;99.90
5280;DHT22;2663;53.588;10.010;2024-03-25T01:28:36;7.30;99.90
5280;DHT22;2663;53.588;10.010;2024-03-25T01:31:02;7.30;99.90
5280;DHT22;2663;53.588;10.010;2024-03-25T01:33:29;7.20;99.90
5280;DHT22;2663;53.588;10.010;2024-03-25T01:35:55;7.20;99.90
5280;DHT22;2663;53.588;10.010;2024-03-25T01:38:21;7.30;99.90
5280;DHT22;2663;53.588;10.010;2024-03-25T01:40:47;7.30;99.90
5280;DHT22;2663;53.588;10.010;2024-03-25T01:43:13;7.30;99.90
5280;DHT22;2663;53.588;10.010;2024-03-25T01:45:39;7.30;99.90
5280;DHT22;2663;53.588;10.010;2024-03-25T01:48:06;7.30;99.90
5280;DHT22;2663;53.588;10.010;2024-03-25T01:50:36;7.30;99.90
5280;DHT22;2663;53.588;10.010;2024-03-25T01:53:03;7.30;99.90
5280;DHT22;2663;53.588;10.010;2024-03-25T01:55:31;7.30;99.90
5280;DHT22;2663;53.588;10.010;2024-03-25T01:57:58;7.30;99.90
5280;DHT22;2663;53.588;10.010;2024-03-25T02:00:25;7.30;99.90
5280;DHT22;2663;53.588;10.010;2024-03-25T02:02:51;9.10;99.90
5280;DHT22;2663;53.588;10.010;2024-03-25T02:05:18;7.30;99.90
5280;DHT22;2663;53.588;10.010;2024-03-25T02:07:44;7.40;99.90
5280;DHT22;2663;53.588;10.010;2024-03-25T02:10:11;7.40;99.90
5280;DHT22;2663;53.588;10.010;2024-03-25T02:12:44;7.40;99.90
5280;DHT22;2663;53.588;10.010;2024-03-25T02:15:11;7.30;99.90
5280;DHT22;2663;53.588;10.010;2024-03-25T02:17:37;7.40;99.90
5280;DHT22;2663;53.588;10.010;2024-03-25T02:20:04;7.30;99.90
5280;DHT22;2663;53.588;10.010;2024-03-25T02:22:36;7.30;99.90
5280;DHT22;2663;53.588;10.010;2024-03-25T02:25:05;7.20;99.90
5280;DHT22;2663;53.588;10.010;2024-03-25T02:27:31;7.10;99.90
5280;DHT22;2663;53.588;10.010;2024-03-25T02:30:09;7.10;99.90
5280;DHT22;2663;53.588;10.010;2024-03-25T02:32:37;7.10;99.90
5280;DHT22;2663;53.588;10.010;2024-03-25T02:35:05;7.00;99.90
5280;DHT22;2663;53.588;10.010;2024-03-25T02:37:32;7.00;99.90
5280;DHT22;2663;53.588;10.010;2024-03-25T02:39:59;7.00;99.90
5280;DHT22;2663;53.588;10.010;2024-03-25T02:42:26;7.10;99.90
5280;DHT22;2663;53.588;10.010;2024-03-25T02:44:56;7.10;99.90
5280;DHT22;2663;53.588;10.010;2024-03-25T02:47:22;7.10;99.90
5280;DHT22;2663;53.588;10.010;2024-03-25T02:49:48;7.00;99.90
5280;DHT22;2663;53.588;10.010;2024-03-25T02:52:14;7.00;99.90
5280;DHT22;2663;53.588;10.010;2024-03-25T02:54:40;6.90;99.90
5280;DHT22;2663;53.588;10.010;2024-03-25T02:57:06;7.00;99.90
5280;DHT22;2663;53.588;10.010;2024-03-25T02:59:31;7.00;99.90
5280;DHT22;2663;53.588;10.010;2024-03-25T03:01:57;7.10;99.90
5280;DHT22;2663;53.588;10.010;2024-03-25T03:04:23;7.10;99.90
5280;DHT22;2663;53.588;10.010;2024-03-25T03:06:49;7.10;99.90
5280;DHT22;2663;53.588;10.010;2024-03-25T03:09:15;7.10;99.90
5280;DHT22;2663;53.588;10.010;2024-03-25T03:11:41;7.00;99.90
5280;DHT22;2663;53.588;10.010;2024-03-25T03:14:07;6.90;99.90
5280;DHT22;2663;53.588;10.010;2024-03-25T03:16:33;6.90;99.90
5280;DHT22;2663;53.588;10.010;2024-03-25T03:18:58;7.00;99.90
5280;DHT22;2663;53.588;10.010;2024-03-25T03:21:24;7.00;99.90
5280;DHT22;2663;53.588;10.010;2024-03-25T03:23:50;7.00;99.90
5280;DHT22;2663;53.588;10.010;2024-03-25T03:26:16;7.10;99.90
5280;DHT22;2663;53.588;10.010;2024-03-25T03:28:41;7.10;99.90
5280;DHT22;2663;53.588;10.010;2024-03-25T03:31:08;7.10;99.90
5280;DHT22;2663;53.588;10.010;2024-03-25T03:33:33;7.20;99.90
5280;DHT22;2663;53.588;10.010;2024-03-25T03:35:59;7.20;99.90
5280;DHT22;2663;53.588;10.010;2024-03-25T03:38:25;7.10;99.90
5280;DHT22;2663;53.588;10.010;2024-03-25T03:41:02;7.10;99.90
5280;DHT22;2663;53.588;10.010;2024-03-25T03:43:28;7.10;99.90
5280;DHT22;2663;53.588;10.010;2024-03-25T03:45:53;7.00;99.90
5280;DHT22;2663;53.588;10.010;2024-03-25T03:48:19;7.10;99.90
5280;DHT22;2663;53.588;10.010;2024-03-25T03:50:45;7.00;99.90
5280;DHT22;2663;53.588;10.010;2024-03-25T03:53:11;7.00;99.90
5280;DHT22;2663;53.588;10.010;2024-03-25T03:55:37;7.00;99.90
5280;DHT22;2663;53.588;10.010;2024-03-25T03:58:03;7.00;99.90
5280;DHT22;2663;53.588;10.010;2024-03-25T04:00:29;7.00;99.90
5280;DHT22;2663;53.588;10.010;2024-03-25T04:02:55;6.90;99.90
5280;DHT22;2663;53.588;10.010;2024-03-25T04:05:20;7.10;99.90
5280;DHT22;2663;53.588;10.010;2024-03-25T04:07:46;6.90;99.90
5280;DHT22;2663;53.588;10.010;2024-03-25T04:10:12;6.90;99.90
5280;DHT22;2663;53.588;10.010;2024-03-25T04:12:39;6.90;99.90
5280;DHT22;2663;53.588;10.010;2024-03-25T04:15:06;6.90;99.90
5280;DHT22;2663;53.588;10.010;2024-03-25T04:17:32;7.00;99.90
5280;DHT22;2663;53.588;10.010;2024-03-25T04:20:00;6.90;99.90
5280;DHT22;2663;53.588;10.010;2024-03-25T04:22:26;8.90;99.90
5280;DHT22;2663;53.588;10.010;2024-03-25T04:24:52;7.00;99.90
5280;DHT22;2663;53.588;10.010;2024-03-25T04:27:17;7.00;99.90
5280;DHT22;2663;53.588;10.010;2024-03-25T04:29:46;6.90;99.90
5280;DHT22;2663;53.588;10.010;2024-03-25T04:32:12;7.00;99.90
5280;DHT22;2663;53.588;10.010;2024-03-25T04:34:38;6.90;99.90
5280;DHT22;2663;53.588;10.010;2024-03-25T04:37:03;6.90;99.90
5280;DHT22;2663;53.588;10.010;2024-03-25T04:39:30;6.90;99.90
5280;DHT22;2663;53.588;10.010;2024-03-25T04:41:56;6.90;99.90
5280;DHT22;2663;53.588;10.010;2024-03-25T04:44:22;7.00;99.90
5280;DHT22;2663;53.588;10.010;2024-03-25T04:46:48;6.90;99.90
5280;DHT22;2663;53.588;10.010;2024-03-25T04:49:13;6.90;99.90
5280;DHT22;2663;53.588;10.010;2024-03-25T04:51:39;6.90;99.90
5280;DHT22;2663;53.588;10.010;2024-03-25T04:54:05;7.10;99.90
5280;DHT22;2663;53.588;10.010;2024-03-25T04:56:31;7.00;99.90
5280;DHT22;2663;53.588;10.010;2024-03-25T04:58:57;7.00;99.90
5280;DHT22;2663;53.588;10.010;2024-03-25T05:01:27;9.00;99.90
5280;DHT22;2663;53.588;10.010;2024-03-25T05:03:53;7.00;99.90
5280;DHT22;2663;53.588;10.010;2024-03-25T05:06:19;7.00;99.90
5280;DHT22;2663;53.588;10.010;2024-03-25T05:08:45;7.00;99.90
5280;DHT22;2663;53.588;10.010;2024-03-25T05:11:11;7.10;99.90
5280;DHT22;2663;53.588;10.010;2024-03-25T05:13:36;7.10;99.90
5280;DHT22;2663;53.588;10.010;2024-03-25T05:16:03;7.10;99.90
5280;DHT22;2663;53.588;10.010;2024-03-25T05:18:29;7.00;99.90
5280;DHT22;2663;53.588;10.010;2024-03-25T05:20:55;7.10;99.90
5280;DHT22;2663;53.588;10.010;2024-03-25T05:23:20;7.10;99.90
5280;DHT22;2663;53.588;10.010;2024-03-25T05:25:46;7.00;99.90
5280;DHT22;2663;53.588;10.010;2024-03-25T05:28:12;7.00;99.90
5280;DHT22;2663;53.588;10.010;2024-03-25T05:30:39;7.00;99.90
5280;DHT22;2663;53.588;10.010;2024-03-25T05:33:04;7.00;99.90
5280;DHT22;2663;53.588;10.010;2024-03-25T05:35:30;7.00;99.90
5280;DHT22;2663;53.588;10.010;2024-03-25T05:37:59;7.00;99.90
5280;DHT22;2663;53.588;10.010;2024-03-25T05:40:25;7.00;99.90
5280;DHT22;2663;53.588;10.010;2024-03-25T05:42:50;7.00;99.90
5280;DHT22;2663;53.588;10.010;2024-03-25T05:45:16;7.00;99.90
5280;DHT22;2663;53.588;10.010;2024-03-25T05:47:42;7.00;99.90
5280;DHT22;2663;53.588;10.010;2024-03-25T05:50:08;6.90;99.90
5280;DHT22;2663;53.588;10.010;2024-03-25T05:52:34;6.90;99.90
5280;DHT22;2663;53.588;10.010;2024-03-25T05:54:59;7.00;99.90
5280;DHT22;2663;53.588;10.010;2024-03-25T05:57:25;7.00;99.90
5280;DHT22;2663;53.588;10.010;2024-03-25T05:59:51;7.00;99.90
5280;DHT22;2663;53.588;10.010;2024-03-25T06:02:17;7.00;99.90
5280;DHT22;2663;53.588;10.010;2024-03-25T06:04:43;7.10;99.90
5280;DHT22;2663;53.588;10.010;2024-03-25T06:07:08;7.20;99.90
5280;DHT22;2663;53.588;10.010;2024-03-25T06:09:34;7.10;99.90
5280;DHT22;2663;53.588;10.010;2024-03-25T06:12:00;7.20;99.90
5280;DHT22;2663;53.588;10.010;2024-03-25T06:14:26;7.20;99.90
5280;DHT22;2663;53.588;10.010;2024-03-25T06:16:51;7.20;99.90
5280;DHT22;2663;53.588;10.010;2024-03-25T06:19:17;7.10;99.90
5280;DHT22;2663;53.588;10.010;2024-03-25T06:21:43;7.30;99.90
5280;DHT22;2663;53.588;10.010;2024-03-25T06:24:08;7.10;99.90
5280;DHT22;2663;53.588;10.010;2024-03-25T06:26:34;7.10;99.90
5280;DHT22;2663;53.588;10.010;2024-03-25T06:29:00;7.10;99.90
5280;DHT22;2663;53.588;10.010;2024-03-25T06:31:26;7.10;99.90
5280;DHT22;2663;53.588;10.010;2024-03-25T06:34:10;7.10;99.90
5280;DHT22;2663;53.588;10.010;2024-03-25T06:36:48;7.10;99.90
5280;DHT22;2663;53.588;10.010;2024-03-25T06:39:14;7.00;99.90
5280;DHT22;2663;53.588;10.010;2024-03-25T06:41:40;7.10;99.90
5280;DHT22;2663;53.588;10.010;2024-03-25T06:44:07;7.10;99.90
5280;DHT22;2663;53.588;10.010;2024-03-25T06:46:33;7.00;99.90
5280;DHT22;2663;53.588;10.010;2024-03-25T06:48:59;7.00;99.90
5280;DHT22;2663;53.588;10.010;2024-03-25T06:51:25;7.10;99.90
5280;DHT22;2663;53.588;10.010;2024-03-25T06:53:51;7.10;99.90
5280;DHT22;2663;53.588;10.010;2024-03-25T06:56:17;7.10;99.90
5280;DHT22;2663;53.588;10.010;2024-03-25T06:58:42;7.00;99.90
5280;DHT22;2663;53.588;10.010;2024-03-25T07:01:11;7.10;99.90
5280;DHT22;2663;53.588;10.010;2024-03-25T07:03:40;7.00;99.90
5280;DHT22;2663;53.588;10.010;2024-03-25T07:06:06;7.10;99.90
5280;DHT22;2663;53.588;10.010;2024-03-25T07:08:32;7.10;99.90
5280;DHT22;2663;53.588;10.010;2024-03-25T07:10:58;7.20;99.90
5280;DHT22;2663;53.588;10.010;2024-03-25T07:13:24;7.20;99.90
5280;DHT22;2663;53.588;10.010;2024-03-25T07:15:50;7.20;99.90
5280;DHT22;2663;53.588;10.010;2024-03-25T07:18:16;7.20;99.90
5280;DHT22;2663;53.588;10.010;2024-03-25T07:20:43;7.20;99.90
5280;DHT22;2663;53.588;10.010;2024-03-25T07:23:09;7.20;99.90
5280;DHT22;2663;53.588;10.010;2024-03-25T07:25:36;7.10;99.90
5280;DHT22;2663;53.588;10.010;2024-03-25T07:28:02;7.00;99.90
5280;DHT22;2663;53.588;10.010;2024-03-25T07:30:28;6.50;99.90
5280;DHT22;2663;53.588;10.010;2024-03-25T07:32:55;7.10;99.90
5280;DHT22;2663;53.588;10.010;2024-03-25T07:35:21;6.50;99.90
5280;DHT22;2663;53.588;10.010;2024-03-25T07:37:47;7.10;99.90
5280;DHT22;2663;53.588;10.010;2024-03-25T07:40:20;7.20;99.90
5280;DHT22;2663;53.588;10.010;2024-03-25T07:42:45;7.20;99.90
5280;DHT22;2663;53.588;10.010;2024-03-25T07:45:11;7.20;99.90
5280;DHT22;2663;53.588;10.010;2024-03-25T07:47:37;7.30;99.90
5280;DHT22;2663;53.588;10.010;2024-03-25T07:50:03;7.30;99.90
5280;DHT22;2663;53.588;10.010;2024-03-25T07:52:31;7.20;99.90
5280;DHT22;2663;53.588;10.010;2024-03-25T07:54:57;9.30;99.90
5280;DHT22;2663;53.588;10.010;2024-03-25T07:57:23;7.20;99.90
5280;DHT22;2663;53.588;10.010;2024-03-25T07:59:49;7.20;99.90
5280;DHT22;2663;53.588;10.010;2024-03-25T08:02:15;7.20;99.90
5280;DHT22;2663;53.588;10.010;2024-03-25T08:04:41;7.10;99.90
5280;DHT22;2663;53.588;10.010;2024-03-25T08:07:07;7.30;99.90
5280;DHT22;2663;53.588;10.010;2024-03-25T08:09:33;7.30;99.90
5280;DHT22;2663;53.588;10.010;2024-03-25T08:11:59;7.30;99.90
5280;DHT22;2663;53.588;10.010;2024-03-25T08:14:25;7.30;99.90
5280;DHT22;2663;53.588;10.010;2024-03-25T08:16:50;7.30;99.90
5280;DHT22;2663;53.588;10.010;2024-03-25T08:19:16;7.20;99.90
5280;DHT22;2663;53.588;10.010;2024-03-25T08:21:42;7.20;99.90
5280;DHT22;2663;53.588;10.010;2024-03-25T08:24:08;7.30;99.90
5280;DHT22;2663;53.588;10.010;2024-03-25T08:26:34;7.40;99.90
5280;DHT22;2663;53.588;10.010;2024-03-25T08:28:59;7.50;99.90
5280;DHT22;2663;53.588;10.010;2024-03-25T08:31:25;7.50;99.90
5280;DHT22;2663;53.588;10.010;2024-03-25T08:33:51;7.60;99.90
5280;DHT22;2663;53.588;10.010;2024-03-25T08:36:17;7.60;99.90
5280;DHT22;2663;53.588;10.010;2024-03-25T08:38:44;7.60;99.90
5280;DHT22;2663;53.588;10.010;2024-03-25T08:41:10;7.60;99.90
5280;DHT22;2663;53.588;10.010;2024-03-25T08:43:36;7.60;99.90
5280;DHT22;2663;53.588;10.010;2024-03-25T08:46:02;7.80;99.90
5280;DHT22;2663;53.588;10.010;2024-03-25T08:48:29;8.00;99.90
5280;DHT22;2663;53.588;10.010;2024-03-25T08:50:55;8.00;99.90
5280;DHT22;2663;53.588;10.010;2024-03-25T08:53:21;8.00;99.90
5280;DHT22;2663;53.588;10.010;2024-03-25T08:55:47;8.00;99.90
5280;DHT22;2663;53.588;10.010;2024-03-25T08:58:14;7.90;99.90
5280;DHT22;2663;53.588;10.010;2024-03-25T09:00:40;8.90;99.90
5280;DHT22;2663;53.588;10.010;2024-03-25T09:03:06;7.80;99.90
5280;DHT22;2663;53.588;10.010;2024-03-25T09:05:32;7.80;99.90
5280;DHT22;2663;53.588;10.010;2024-03-25T09:07:59;7.90;99.90
5280;DHT22;2663;53.588;10.010;2024-03-25T09:10:25;7.90;99.90
5280;DHT22;2663;53.588;10.010;2024-03-25T09:13:09;7.80;99.90
5280;DHT22;2663;53.588;10.010;2024-03-25T09:15:35;7.90;99.90
5280;DHT22;2663;53.588;10.010;2024-03-25T09:18:01;8.00;99.90
5280;DHT22;2663;53.588;10.010;2024-03-25T09:20:27;8.30;99.90
5280;DHT22;2663;53.588;10.010;2024-03-25T09:22:53;8.50;99.90
5280;DHT22;2663;53.588;10.010;2024-03-25T09:25:19;8.70;99.90
5280;DHT22;2663;53.588;10.010;2024-03-25T09:27:48;10.40;99.90
5280;DHT22;2663;53.588;10.010;2024-03-25T09:30:15;8.60;99.90
5280;DHT22;2663;53.588;10.010;2024-03-25T09:32:41;8.60;99.90
5280;DHT22;2663;53.588;10.010;2024-03-25T09:35:08;8.60;99.90
5280;DHT22;2663;53.588;10.010;2024-03-25T09:37:35;8.70;99.90
5280;DHT22;2663;53.588;10.010;2024-03-25T09:40:01;8.50;99.90
5280;DHT22;2663;53.588;10.010;2024-03-25T09:42:34;8.60;99.90
5280;DHT22;2663;53.588;10.010;2024-03-25T09:45:00;8.50;99.90
5280;DHT22;2663;53.588;10.010;2024-03-25T09:47:27;8.40;99.90
5280;DHT22;2663;53.588;10.010;2024-03-25T09:49:54;8.50;99.90
5280;DHT22;2663;53.588;10.010;2024-03-25T09:52:20;8.50;99.90
5280;DHT22;2663;53.588;10.010;2024-03-25T09:54:46;8.50;99.90
5280;DHT22;2663;53.588;10.010;2024-03-25T09:57:12;8.60;99.90
5280;DHT22;2663;53.588;10.010;2024-03-25T09:59:39;8.70;99.90
5280;DHT22;2663;53.588;10.010;2024-03-25T10:02:05;8.90;99.90
5280;DHT22;2663;53.588;10.010;2024-03-25T10:04:32;8.90;99.90
5280;DHT22;2663;53.588;10.010;2024-03-25T10:06:58;8.70;99.90
5280;DHT22;2663;53.588;10.010;2024-03-25T10:09:24;8.40;99.90
5280;DHT22;2663;53.588;10.010;2024-03-25T10:11:51;8.20;99.90
5280;DHT22;2663;53.588;10.010;2024-03-25T10:14:17;8.20;99.90
5280;DHT22;2663;53.588;10.010;2024-03-25T10:16:44;8.20;99.90
5280;DHT22;2663;53.588;10.010;2024-03-25T10:19:10;8.30;99.90
5280;DHT22;2663;53.588;10.010;2024-03-25T10:21:36;8.30;99.90
5280;DHT22;2663;53.588;10.010;2024-03-25T10:24:04;8.30;99.90
5280;DHT22;2663;53.588;10.010;2024-03-25T10:26:32;8.50;99.90
5280;DHT22;2663;53.588;10.010;2024-03-25T10:29:07;8.50;99.90
5280;DHT22;2663;53.588;10.010;2024-03-25T10:31:33;8.70;99.90
5280;DHT22;2663;53.588;10.010;2024-03-25T10:34:00;8.70;99.90
5280;DHT22;2663;53.588;10.010;2024-03-25T10:36:26;9.00;99.90
5280;DHT22;2663;53.588;10.010;2024-03-25T10:38:55;9.10;99.90
5280;DHT22;2663;53.588;10.010;2024-03-25T10:41:22;9.20;99.90
5280;DHT22;2663;53.588;10.010;2024-03-25T10:43:49;9.30;99.90
5280;DHT22;2663;53.588;10.010;2024-03-25T10:46:19;9.50;99.90
5280;DHT22;2663;53.588;10.010;2024-03-25T10:48:54;9.70;99.90
5280;DHT22;2663;53.588;10.010;2024-03-25T10:51:22;9.80;99.90
5280;DHT22;2663;53.588;10.010;2024-03-25T10:53:52;9.50;99.90
5280;DHT22;2663;53.588;10.010;2024-03-25T10:56:21;9.40;99.90
5280;DHT22;2663;53.588;10.010;2024-03-25T10:58:48;9.30;99.90
5280;DHT22;2663;53.588;10.010;2024-03-25T11:01:19;9.20;99.90
5280;DHT22;2663;53.588;10.010;2024-03-25T11:03:46;9.20;99.90
5280;DHT22;2663;53.588;10.010;2024-03-25T11:06:14;9.20;99.90
5280;DHT22;2663;53.588;10.010;2024-03-25T11:08:40;9.20;99.90
5280;DHT22;2663;53.588;10.010;2024-03-25T11:11:07;9.20;99.90
5280;DHT22;2663;53.588;10.010;2024-03-25T11:13:33;9.20;99.90
5280;DHT22;2663;53.588;10.010;2024-03-25T11:16:00;9.30;99.90
5280;DHT22;2663;53.588;10.010;2024-03-25T11:18:26;9.30;99.90
5280;DHT22;2663;53.588;10.010;2024-03-25T11:21:06;9.30;99.90
5280;DHT22;2663;53.588;10.010;2024-03-25T11:23:44;9.30;99.90
5280;DHT22;2663;53.588;10.010;2024-03-25T11:26:26;9.20;99.90
5280;DHT22;2663;53.588;10.010;2024-03-25T11:28:56;9.20;99.90
5280;DHT22;2663;53.588;10.010;2024-03-25T11:31:25;9.10;99.90
5280;DHT22;2663;53.588;10.010;2024-03-25T11:33:51;9.10;99.90
5280;DHT22;2663;53.588;10.010;2024-03-25T11:36:18;9.20;99.90
5280;DHT22;2663;53.588;10.010;2024-03-25T11:38:45;9.20;99.90
5280;DHT22;2663;53.588;10.010;2024-03-25T11:41:12;9.10;99.90
5280;DHT22;2663;53.588;10.010;2024-03-25T11:43:38;9.10;99.90
5280;DHT22;2663;53.588;10.010;2024-03-25T11:46:05;9.20;99.90
5280;DHT22;2663;53.588;10.010;2024-03-25T11:48:32;9.60;99.90
5280;DHT22;2663;53.588;10.010;2024-03-25T11:50:58;9.70;99.90
5280;DHT22;2663;53.588;10.010;2024-03-25T11:53:24;9.90;99.90
5280;DHT22;2663;53.588;10.010;2024-03-25T11:55:49;10.10;99.90
5280;DHT22;2663;53.588;10.010;2024-03-25T11:58:17;10.20;99.90
5280;DHT22;2663;53.588;10.010;2024-03-25T12:00:46;10.20;99.90
5280;DHT22;2663;53.588;10.010;2024-03-25T12:03:16;10.20;99.90
5280;DHT22;2663;53.588;10.010;2024-03-25T12:05:44;10.00;99.90
5280;DHT22;2663;53.588;10.010;2024-03-25T12:08:10;9.80;99.90
5280;DHT22;2663;53.588;10.010;2024-03-25T12:10:39;9.70;99.90
5280;DHT22;2663;53.588;10.010;2024-03-25T12:13:23;9.80;99.90
5280;DHT22;2663;53.588;10.010;2024-03-25T12:15:51;10.00;99.90
5280;DHT22;2663;53.588;10.010;2024-03-25T12:18:17;10.10;99.90
5280;DHT22;2663;53.588;10.010;2024-03-25T12:20:47;8.60;99.90
5280;DHT22;2663;53.588;10.010;2024-03-25T12:23:13;10.40;99.90
5280;DHT22;2663;53.588;10.010;2024-03-25T12:25:40;10.30;99.90
5280;DHT22;2663;53.588;10.010;2024-03-25T12:28:09;10.20;99.90
5280;DHT22;2663;53.588;10.010;2024-03-25T12:30:54;10.00;99.90
5280;DHT22;2663;53.588;10.010;2024-03-25T12:33:22;9.90;99.90
5280;DHT22;2663;53.588;10.010;2024-03-25T12:35:52;9.80;99.90
5280;DHT22;2663;53.588;10.010;2024-03-25T12:38:27;9.90;99.90
5280;DHT22;2663;53.588;10.010;2024-03-25T12:40:54;9.80;99.90
5280;DHT22;2663;53.588;10.010;2024-03-25T12:43:20;9.80;99.90
5280;DHT22;2663;53.588;10.010;2024-03-25T12:45:46;10.00;99.90
5280;DHT22;2663;53.588;10.010;2024-03-25T12:48:14;10.20;99.90
5280;DHT22;2663;53.588;10.010;2024-03-25T12:50:40;10.60;99.90
5280;DHT22;2663;53.588;10.010;2024-03-25T12:53:06;10.90;99.90
5280;DHT22;2663;53.588;10.010;2024-03-25T12:55:32;10.90;99.90
5280;DHT22;2663;53.588;10.010;2024-03-25T12:57:57;11.00;99.90
5280;DHT22;2663;53.588;10.010;2024-03-25T13:00:23;11.20;99.90
5280;DHT22;2663;53.588;10.010;2024-03-25T13:02:49;11.00;99.90
5280;DHT22;2663;53.588;10.010;2024-03-25T13:05:15;11.10;99.90
5280;DHT22;2663;53.588;10.010;2024-03-25T13:07:41;11.20;99.90
5280;DHT22;2663;53.588;10.010;2024-03-25T13:10:07;11.40;99.90
5280;DHT22;2663;53.588;10.010;2024-03-25T13:12:33;11.50;99.90
5280;DHT22;2663;53.588;10.010;2024-03-25T13:14:59;11.40;99.90
5280;DHT22;2663;53.588;10.010;2024-03-25T13:17:25;11.30;99.90
5280;DHT22;2663;53.588;10.010;2024-03-25T13:19:50;11.00;99.90
5280;DHT22;2663;53.588;10.010;2024-03-25T13:22:16;10.70;99.90
5280;DHT22;2663;53.588;10.010;2024-03-25T13:24:42;10.60;99.90
5280;DHT22;2663;53.588;10.010;2024-03-25T13:27:08;10.40;99.90
5280;DHT22;2663;53.588;10.010;2024-03-25T13:29:34;10.30;99.90
5280;DHT22;2663;53.588;10.010;2024-03-25T13:32:03;10.10;99.90
5280;DHT22;2663;53.588;10.010;2024-03-25T13:34:29;9.90;99.90
5280;DHT22;2663;53.588;10.010;2024-03-25T13:36:55;9.80;99.90
5280;DHT22;2663;53.588;10.010;2024-03-25T13:39:20;9.90;99.90
5280;DHT22;2663;53.588;10.010;2024-03-25T13:41:46;9.80;99.90
5280;DHT22;2663;53.588;10.010;2024-03-25T13:44:12;9.80;99.90
5280;DHT22;2663;53.588;10.010;2024-03-25T13:46:38;9.80;99.90
5280;DHT22;2663;53.588;10.010;2024-03-25T13:49:04;9.90;99.90
5280;DHT22;2663;53.588;10.010;2024-03-25T13:51:30;10.00;99.90
5280;DHT22;2663;53.588;10.010;2024-03-25T13:53:55;10.10;99.90
5280;DHT22;2663;53.588;10.010;2024-03-25T13:56:21;10.30;99.90
5280;DHT22;2663;53.588;10.010;2024-03-25T13:58:47;10.30;99.90
5280;DHT22;2663;53.588;10.010;2024-03-25T14:01:13;10.40;99.90
5280;DHT22;2663;53.588;10.010;2024-03-25T14:03:38;10.20;99.90
5280;DHT22;2663;53.588;10.010;2024-03-25T14:06:04;10.10;99.90
5280;DHT22;2663;53.588;10.010;2024-03-25T14:08:30;10.20;99.90
5280;DHT22;2663;53.588;10.010;2024-03-25T14:11:00;10.10;99.90
5280;DHT22;2663;53.588;10.010;2024-03-25T14:13:26;10.10;99.90
5280;DHT22;2663;53.588;10.010;2024-03-25T14:15:51;8.60;99.90
5280;DHT22;2663;53.588;10.010;2024-03-25T14:18:17;10.00;99.90
5280;DHT22;2663;53.588;10.010;2024-03-25T14:20:43;10.00;99.90
5280;DHT22;2663;53.588;10.010;2024-03-25T14:23:09;10.00;99.90
5280;DHT22;2663;53.588;10.010;2024-03-25T14:25:35;10.10;99.90
5280;DHT22;2663;53.588;10.010;2024-03-25T14:28:01;10.10;99.90
5280;DHT22;2663;53.588;10.010;2024-03-25T14:30:27;10.20;99.90
5280;DHT22;2663;53.588;10.010;2024-03-25T14:32:52;10.20;99.90
5280;DHT22;2663;53.588;10.010;2024-03-25T14:35:21;10.10;99.90
5280;DHT22;2663;53.588;10.010;2024-03-25T14:37:48;10.10;99.90
5280;DHT22;2663;53.588;10.010;2024-03-25T14:40:15;10.10;99.90
5280;DHT22;2663;53.588;10.010;2024-03-25T14:42:43;10.30;99.90
5280;DHT22;2663;53.588;10.010;2024-03-25T14:45:09;10.60;99.90
5280;DHT22;2663;53.588;10.010;2024-03-25T14:47:35;10.80;99.90
5280;DHT22;2663;53.588;10.010;2024-03-25T14:50:00;10.90;99.90
5280;DHT22;2663;53.588;10.010;2024-03-25T14:52:26;11.10;99.90
5280;DHT22;2663;53.588;10.010;2024-03-25T14:54:52;11.20;99.90
5280;DHT22;2663;53.588;10.010;2024-03-25T14:57:18;11.20;99.90
5280;DHT22;2663;53.588;10.010;2024-03-25T14:59:44;11.30;99.90
5280;DHT22;2663;53.588;10.010;2024-03-25T15:02:09;11.30;99.90
5280;DHT22;2663;53.588;10.010;2024-03-25T15:04:39;11.30;99.90
5280;DHT22;2663;53.588;10.010;2024-03-25T15:07:13;11.40;99.90
5280;DHT22;2663;53.588;10.010;2024-03-25T15:09:39;11.60;99.90
5280;DHT22;2663;53.588;10.010;2024-03-25T15:12:05;11.30;99.90
5280;DHT22;2663;53.588;10.010;2024-03-25T15:14:31;11.10;99.90
5280;DHT22;2663;53.588;10.010;2024-03-25T15:16:57;11.20;99.90
5280;DHT22;2663;53.588;10.010;2024-03-25T15:19:26;11.30;99.90
5280;DHT22;2663;53.588;10.010;2024-03-25T15:21:52;10.20;99.90
5280;DHT22;2663;53.588;10.010;2024-03-25T15:24:18;11.40;99.90
5280;DHT22;2663;53.588;10.010;2024-03-25T15:26:43;11.50;99.90
5280;DHT22;2663;53.588;10.010;2024-03-25T15:29:09;11.40;99.90
5280;DHT22;2663;53.588;10.010;2024-03-25T15:31:35;11.50;99.90
5280;DHT22;2663;53.588;10.010;2024-03-25T15:34:01;11.60;99.90
5280;DHT22;2663;53.588;10.010;2024-03-25T15:36:27;11.70;99.90
5280;DHT22;2663;53.588;10.010;2024-03-25T15:38:56;11.80;99.90
5280;DHT22;2663;53.588;10.010;2024-03-25T15:41:22;11.80;99.90
5280;DHT22;2663;53.588;10.010;2024-03-25T15:43:52;11.70;99.90
5280;DHT22;2663;53.588;10.010;2024-03-25T15:46:18;11.70;99.90
5280;DHT22;2663;53.588;10.010;2024-03-25T15:48:44;11.60;99.90
5280;DHT22;2663;53.588;10.010;2024-03-25T15:51:11;11.40;99.90
5280;DHT22;2663;53.588;10.010;2024-03-25T15:53:37;11.30;99.90